sensor_id;sensor_type;location;lat;lon;timestamp;P1;durP1;ratioP1;P2;durP2;ratioP2
20758;SDS011;10539;53.686;9.158;2022-11-15T00:00:09;55.40;;;24.30;;
20758;SDS011;10539;53.686;9.158;2022-11-15T00:02:35;56.33;;;25.23;;
20758;SDS011;10539;53.686;9.158;2022-11-15T00:05:01;55.40;;;25.13;;
20758;SDS011;10539;53.686;9.158;2022-11-15T00:07:26;59.23;;;25.20;;
20758;SDS011;10539;53.686;9.158;2022-11-15T00:09:52;58.00;;;25.37;;
20758;SDS011;10539;53.686;9.158;2022-11-15T00:12:18;60.17;;;24.93;;
20758;SDS011;10539;53.686;9.158;2022-11-15T00:14:44;56.00;;;24.50;;
20758;SDS011;10539;53.686;9.158;2022-11-15T00:17:09;53.53;;;23.73;;
20758;SDS011;10539;53.686;9.158;2022-11-15T00:19:35;57.97;;;24.67;;
20758;SDS011;10539;53.686;9.158;2022-11-15T00:22:01;58.50;;;25.13;;
20758;SDS011;10539;53.686;9.158;2022-11-15T00:24:26;58.67;;;26.20;;
20758;SDS011;10539;53.686;9.158;2022-11-15T00:26:52;59.33;;;25.27;;
20758;SDS011;10539;53.686;9.158;2022-11-15T00:29:18;60.30;;;25.97;;
20758;SDS011;10539;53.686;9.158;2022-11-15T00:31:43;57.37;;;25.27;;
20758;SDS011;10539;53.686;9.158;2022-11-15T00:34:09;57.23;;;25.40;;
20758;SDS011;10539;53.686;9.158;2022-11-15T00:36:36;59.50;;;25.83;;
20758;SDS011;10539;53.686;9.158;2022-11-15T00:39:03;57.83;;;25.27;;
20758;SDS011;10539;53.686;9.158;2022-11-15T00:41:30;52.53;;;24.40;;
20758;SDS011;10539;53.686;9.158;2022-11-15T00:43:56;57.90;;;25.10;;
20758;SDS011;10539;53.686;9.158;2022-11-15T00:46:22;57.43;;;24.63;;
20758;SDS011;10539;53.686;9.158;2022-11-15T00:48:47;50.30;;;22.13;;
20758;SDS011;10539;53.686;9.158;2022-11-15T00:51:13;53.40;;;23.63;;
20758;SDS011;10539;53.686;9.158;2022-11-15T00:53:39;53.83;;;24.20;;
20758;SDS011;10539;53.686;9.158;2022-11-15T00:56:05;55.00;;;23.83;;
20758;SDS011;10539;53.686;9.158;2022-11-15T00:58:31;54.17;;;23.63;;
20758;SDS011;10539;53.686;9.158;2022-11-15T01:01:04;55.90;;;23.77;;
20758;SDS011;10539;53.686;9.158;2022-11-15T01:03:32;54.00;;;24.73;;
20758;SDS011;10539;53.686;9.158;2022-11-15T01:05:59;54.93;;;23.90;;
20758;SDS011;10539;53.686;9.158;2022-11-15T01:08:25;58.73;;;24.27;;
20758;SDS011;10539;53.686;9.158;2022-11-15T01:10:50;54.60;;;24.03;;
20758;SDS011;10539;53.686;9.158;2022-11-15T01:13:16;51.57;;;24.10;;
20758;SDS011;10539;53.686;9.158;2022-11-15T01:15:42;49.63;;;23.20;;
20758;SDS011;10539;53.686;9.158;2022-11-15T01:18:08;53.93;;;24.00;;
20758;SDS011;10539;53.686;9.158;2022-11-15T01:20:34;52.87;;;23.10;;
20758;SDS011;10539;53.686;9.158;2022-11-15T01:23:04;51.87;;;22.67;;
20758;SDS011;10539;53.686;9.158;2022-11-15T01:25:31;55.57;;;24.53;;
20758;SDS011;10539;53.686;9.158;2022-11-15T01:27:56;51.67;;;23.33;;
20758;SDS011;10539;53.686;9.158;2022-11-15T01:30:22;58.23;;;24.43;;
20758;SDS011;10539;53.686;9.158;2022-11-15T01:32:48;53.23;;;24.33;;
20758;SDS011;10539;53.686;9.158;2022-11-15T01:35:13;52.63;;;23.27;;
20758;SDS011;10539;53.686;9.158;2022-11-15T01:37:39;58.23;;;24.80;;
20758;SDS011;10539;53.686;9.158;2022-11-15T01:40:05;49.83;;;22.43;;
20758;SDS011;10539;53.686;9.158;2022-11-15T01:42:31;57.73;;;24.77;;
20758;SDS011;10539;53.686;9.158;2022-11-15T01:44:57;48.53;;;22.37;;
20758;SDS011;10539;53.686;9.158;2022-11-15T01:47:24;54.00;;;23.20;;
20758;SDS011;10539;53.686;9.158;2022-11-15T01:50:10;51.60;;;23.13;;
20758;SDS011;10539;53.686;9.158;2022-11-15T01:52:39;54.33;;;22.33;;
20758;SDS011;10539;53.686;9.158;2022-11-15T01:55:09;56.80;;;24.03;;
20758;SDS011;10539;53.686;9.158;2022-11-15T01:57:40;50.23;;;22.93;;
20758;SDS011;10539;53.686;9.158;2022-11-15T02:00:08;57.97;;;23.50;;
20758;SDS011;10539;53.686;9.158;2022-11-15T02:02:34;53.60;;;24.03;;
20758;SDS011;10539;53.686;9.158;2022-11-15T02:05:02;52.43;;;24.37;;
20758;SDS011;10539;53.686;9.158;2022-11-15T02:07:28;54.97;;;24.77;;
20758;SDS011;10539;53.686;9.158;2022-11-15T02:09:57;52.10;;;23.23;;
20758;SDS011;10539;53.686;9.158;2022-11-15T02:12:26;53.43;;;23.33;;
20758;SDS011;10539;53.686;9.158;2022-11-15T02:14:53;51.50;;;23.13;;
20758;SDS011;10539;53.686;9.158;2022-11-15T02:18:06;51.77;;;22.30;;
20758;SDS011;10539;53.686;9.158;2022-11-15T02:28:30;54.63;;;22.13;;
20758;SDS011;10539;53.686;9.158;2022-11-15T02:31:08;51.80;;;21.93;;
20758;SDS011;10539;53.686;9.158;2022-11-15T02:37:03;48.50;;;21.43;;
20758;SDS011;10539;53.686;9.158;2022-11-15T02:39:39;45.97;;;20.27;;
20758;SDS011;10539;53.686;9.158;2022-11-15T02:42:17;48.43;;;20.97;;
20758;SDS011;10539;53.686;9.158;2022-11-15T02:45:11;47.03;;;20.07;;
20758;SDS011;10539;53.686;9.158;2022-11-15T02:47:43;48.20;;;20.27;;
20758;SDS011;10539;53.686;9.158;2022-11-15T02:50:11;51.00;;;21.23;;
20758;SDS011;10539;53.686;9.158;2022-11-15T02:52:41;53.67;;;21.83;;
20758;SDS011;10539;53.686;9.158;2022-11-15T03:00:24;53.27;;;21.53;;
20758;SDS011;10539;53.686;9.158;2022-11-15T03:06:04;50.70;;;21.03;;
20758;SDS011;10539;53.686;9.158;2022-11-15T03:11:17;49.20;;;21.57;;
20758;SDS011;10539;53.686;9.158;2022-11-15T03:16:58;51.10;;;20.47;;
20758;SDS011;10539;53.686;9.158;2022-11-15T03:19:40;50.80;;;20.77;;
20758;SDS011;10539;53.686;9.158;2022-11-15T03:22:16;48.43;;;21.37;;
20758;SDS011;10539;53.686;9.158;2022-11-15T03:24:46;49.87;;;21.60;;
20758;SDS011;10539;53.686;9.158;2022-11-15T03:27:17;47.60;;;22.60;;
20758;SDS011;10539;53.686;9.158;2022-11-15T03:29:52;46.43;;;20.70;;
20758;SDS011;10539;53.686;9.158;2022-11-15T03:32:23;54.20;;;21.73;;
20758;SDS011;10539;53.686;9.158;2022-11-15T03:34:56;46.83;;;20.47;;
20758;SDS011;10539;53.686;9.158;2022-11-15T03:37:38;50.40;;;20.17;;
20758;SDS011;10539;53.686;9.158;2022-11-15T03:40:20;49.10;;;20.20;;
20758;SDS011;10539;53.686;9.158;2022-11-15T03:43:00;51.70;;;20.67;;
20758;SDS011;10539;53.686;9.158;2022-11-15T03:45:37;49.80;;;20.53;;
20758;SDS011;10539;53.686;9.158;2022-11-15T03:48:13;46.93;;;19.90;;
20758;SDS011;10539;53.686;9.158;2022-11-15T03:50:42;48.27;;;21.23;;
20758;SDS011;10539;53.686;9.158;2022-11-15T03:53:10;46.47;;;19.90;;
20758;SDS011;10539;53.686;9.158;2022-11-15T03:55:37;51.57;;;21.40;;
20758;SDS011;10539;53.686;9.158;2022-11-15T03:58:03;46.83;;;20.43;;
20758;SDS011;10539;53.686;9.158;2022-11-15T04:00:29;48.00;;;20.33;;
20758;SDS011;10539;53.686;9.158;2022-11-15T04:02:54;43.43;;;19.23;;
20758;SDS011;10539;53.686;9.158;2022-11-15T04:05:20;42.17;;;19.23;;
20758;SDS011;10539;53.686;9.158;2022-11-15T04:07:46;40.93;;;19.50;;
20758;SDS011;10539;53.686;9.158;2022-11-15T04:10:12;43.20;;;19.17;;
20758;SDS011;10539;53.686;9.158;2022-11-15T04:12:39;45.87;;;20.67;;
20758;SDS011;10539;53.686;9.158;2022-11-15T04:15:15;38.77;;;18.07;;
20758;SDS011;10539;53.686;9.158;2022-11-15T04:17:44;36.57;;;18.47;;
20758;SDS011;10539;53.686;9.158;2022-11-15T04:23:06;42.87;;;18.93;;
20758;SDS011;10539;53.686;9.158;2022-11-15T04:25:54;39.13;;;18.00;;
20758;SDS011;10539;53.686;9.158;2022-11-15T04:28:22;37.77;;;17.70;;
20758;SDS011;10539;53.686;9.158;2022-11-15T04:30:48;41.73;;;18.27;;
20758;SDS011;10539;53.686;9.158;2022-11-15T04:33:13;39.70;;;17.63;;
20758;SDS011;10539;53.686;9.158;2022-11-15T04:35:39;35.93;;;17.83;;
20758;SDS011;10539;53.686;9.158;2022-11-15T04:38:06;38.73;;;17.90;;
20758;SDS011;10539;53.686;9.158;2022-11-15T04:40:34;33.37;;;16.57;;
20758;SDS011;10539;53.686;9.158;2022-11-15T04:43:00;36.53;;;16.90;;
20758;SDS011;10539;53.686;9.158;2022-11-15T04:45:26;38.37;;;18.73;;
20758;SDS011;10539;53.686;9.158;2022-11-15T04:47:51;37.63;;;18.60;;
20758;SDS011;10539;53.686;9.158;2022-11-15T04:50:17;40.77;;;19.77;;
20758;SDS011;10539;53.686;9.158;2022-11-15T04:52:44;46.00;;;21.37;;
20758;SDS011;10539;53.686;9.158;2022-11-15T04:55:16;39.33;;;18.90;;
20758;SDS011;10539;53.686;9.158;2022-11-15T04:57:42;40.10;;;18.07;;
20758;SDS011;10539;53.686;9.158;2022-11-15T05:00:08;38.57;;;17.53;;
20758;SDS011;10539;53.686;9.158;2022-11-15T05:02:36;37.43;;;18.13;;
20758;SDS011;10539;53.686;9.158;2022-11-15T05:05:20;32.43;;;16.07;;
20758;SDS011;10539;53.686;9.158;2022-11-15T05:07:46;36.47;;;17.47;;
20758;SDS011;10539;53.686;9.158;2022-11-15T05:10:12;33.50;;;16.63;;
20758;SDS011;10539;53.686;9.158;2022-11-15T05:12:37;33.33;;;16.83;;
20758;SDS011;10539;53.686;9.158;2022-11-15T05:15:03;35.50;;;16.97;;
20758;SDS011;10539;53.686;9.158;2022-11-15T05:17:30;31.83;;;16.17;;
20758;SDS011;10539;53.686;9.158;2022-11-15T05:19:56;33.13;;;16.50;;
20758;SDS011;10539;53.686;9.158;2022-11-15T05:22:21;32.13;;;16.47;;
20758;SDS011;10539;53.686;9.158;2022-11-15T05:24:47;35.00;;;16.57;;
20758;SDS011;10539;53.686;9.158;2022-11-15T05:27:13;32.50;;;15.87;;
20758;SDS011;10539;53.686;9.158;2022-11-15T05:29:39;38.73;;;18.37;;
20758;SDS011;10539;53.686;9.158;2022-11-15T05:32:05;40.97;;;18.33;;
20758;SDS011;10539;53.686;9.158;2022-11-15T05:34:31;37.87;;;18.60;;
20758;SDS011;10539;53.686;9.158;2022-11-15T05:36:57;34.67;;;17.57;;
20758;SDS011;10539;53.686;9.158;2022-11-15T05:39:24;39.30;;;17.67;;
20758;SDS011;10539;53.686;9.158;2022-11-15T05:41:52;39.13;;;19.47;;
20758;SDS011;10539;53.686;9.158;2022-11-15T05:44:30;38.30;;;19.00;;
20758;SDS011;10539;53.686;9.158;2022-11-15T05:46:57;41.10;;;19.30;;
20758;SDS011;10539;53.686;9.158;2022-11-15T05:49:25;44.03;;;18.47;;
20758;SDS011;10539;53.686;9.158;2022-11-15T05:51:55;39.37;;;19.40;;
20758;SDS011;10539;53.686;9.158;2022-11-15T05:54:22;38.10;;;18.07;;
20758;SDS011;10539;53.686;9.158;2022-11-15T05:56:49;37.63;;;18.10;;
20758;SDS011;10539;53.686;9.158;2022-11-15T05:59:15;41.70;;;19.30;;
20758;SDS011;10539;53.686;9.158;2022-11-15T06:01:42;40.40;;;19.20;;
20758;SDS011;10539;53.686;9.158;2022-11-15T06:04:07;41.97;;;18.23;;
20758;SDS011;10539;53.686;9.158;2022-11-15T06:06:33;45.40;;;18.47;;
20758;SDS011;10539;53.686;9.158;2022-11-15T06:08:59;43.57;;;18.67;;
20758;SDS011;10539;53.686;9.158;2022-11-15T06:11:25;42.20;;;18.77;;
20758;SDS011;10539;53.686;9.158;2022-11-15T06:13:51;43.93;;;18.57;;
20758;SDS011;10539;53.686;9.158;2022-11-15T06:16:16;48.07;;;19.23;;
20758;SDS011;10539;53.686;9.158;2022-11-15T06:18:42;46.87;;;19.33;;
20758;SDS011;10539;53.686;9.158;2022-11-15T06:21:08;40.23;;;18.93;;
20758;SDS011;10539;53.686;9.158;2022-11-15T06:23:34;45.83;;;19.47;;
20758;SDS011;10539;53.686;9.158;2022-11-15T06:26:01;40.83;;;18.87;;
20758;SDS011;10539;53.686;9.158;2022-11-15T06:28:28;41.50;;;17.50;;
20758;SDS011;10539;53.686;9.158;2022-11-15T06:30:55;44.10;;;18.90;;
20758;SDS011;10539;53.686;9.158;2022-11-15T06:33:21;39.90;;;19.17;;
20758;SDS011;10539;53.686;9.158;2022-11-15T06:35:47;44.80;;;19.73;;
20758;SDS011;10539;53.686;9.158;2022-11-15T06:38:12;43.00;;;18.33;;
20758;SDS011;10539;53.686;9.158;2022-11-15T06:40:38;42.63;;;19.03;;
20758;SDS011;10539;53.686;9.158;2022-11-15T06:43:05;41.50;;;19.10;;
20758;SDS011;10539;53.686;9.158;2022-11-15T06:45:31;44.50;;;18.53;;
20758;SDS011;10539;53.686;9.158;2022-11-15T06:47:57;40.10;;;17.63;;
20758;SDS011;10539;53.686;9.158;2022-11-15T06:50:24;35.93;;;17.23;;
20758;SDS011;10539;53.686;9.158;2022-11-15T06:52:49;40.87;;;18.43;;
20758;SDS011;10539;53.686;9.158;2022-11-15T06:55:15;41.47;;;17.27;;
20758;SDS011;10539;53.686;9.158;2022-11-15T06:57:46;44.57;;;19.10;;
20758;SDS011;10539;53.686;9.158;2022-11-15T07:00:15;39.23;;;18.13;;
20758;SDS011;10539;53.686;9.158;2022-11-15T07:02:42;43.73;;;19.43;;
20758;SDS011;10539;53.686;9.158;2022-11-15T07:05:08;43.27;;;18.03;;
20758;SDS011;10539;53.686;9.158;2022-11-15T07:07:34;38.33;;;18.57;;
20758;SDS011;10539;53.686;9.158;2022-11-15T07:10:00;39.53;;;18.07;;
20758;SDS011;10539;53.686;9.158;2022-11-15T07:12:26;37.80;;;17.73;;
20758;SDS011;10539;53.686;9.158;2022-11-15T07:14:52;35.47;;;17.10;;
20758;SDS011;10539;53.686;9.158;2022-11-15T07:17:17;43.40;;;18.30;;
20758;SDS011;10539;53.686;9.158;2022-11-15T07:19:43;44.27;;;18.53;;
20758;SDS011;10539;53.686;9.158;2022-11-15T07:22:09;44.17;;;18.30;;
20758;SDS011;10539;53.686;9.158;2022-11-15T07:24:34;45.60;;;18.53;;
20758;SDS011;10539;53.686;9.158;2022-11-15T07:27:00;45.23;;;18.17;;
20758;SDS011;10539;53.686;9.158;2022-11-15T07:29:26;36.03;;;17.53;;
20758;SDS011;10539;53.686;9.158;2022-11-15T07:31:52;43.97;;;19.27;;
20758;SDS011;10539;53.686;9.158;2022-11-15T07:34:17;40.23;;;19.23;;
20758;SDS011;10539;53.686;9.158;2022-11-15T07:36:43;36.73;;;17.83;;
20758;SDS011;10539;53.686;9.158;2022-11-15T07:39:09;35.23;;;18.47;;
20758;SDS011;10539;53.686;9.158;2022-11-15T07:41:35;41.13;;;20.47;;
20758;SDS011;10539;53.686;9.158;2022-11-15T07:44:00;44.40;;;18.63;;
20758;SDS011;10539;53.686;9.158;2022-11-15T07:46:26;42.33;;;19.60;;
20758;SDS011;10539;53.686;9.158;2022-11-15T07:48:52;39.00;;;19.17;;
20758;SDS011;10539;53.686;9.158;2022-11-15T07:51:18;35.97;;;18.40;;
20758;SDS011;10539;53.686;9.158;2022-11-15T07:53:44;37.07;;;18.30;;
20758;SDS011;10539;53.686;9.158;2022-11-15T07:56:09;36.83;;;17.13;;
20758;SDS011;10539;53.686;9.158;2022-11-15T07:58:36;35.13;;;15.80;;
20758;SDS011;10539;53.686;9.158;2022-11-15T08:01:02;34.87;;;16.73;;
20758;SDS011;10539;53.686;9.158;2022-11-15T08:03:32;31.73;;;15.53;;
20758;SDS011;10539;53.686;9.158;2022-11-15T08:05:58;35.27;;;17.30;;
20758;SDS011;10539;53.686;9.158;2022-11-15T08:08:24;30.83;;;16.33;;
20758;SDS011;10539;53.686;9.158;2022-11-15T08:10:50;33.73;;;16.20;;
20758;SDS011;10539;53.686;9.158;2022-11-15T08:13:16;31.43;;;15.87;;
20758;SDS011;10539;53.686;9.158;2022-11-15T08:15:42;31.50;;;15.83;;
20758;SDS011;10539;53.686;9.158;2022-11-15T08:18:10;32.83;;;16.40;;
20758;SDS011;10539;53.686;9.158;2022-11-15T08:20:40;31.20;;;16.20;;
20758;SDS011;10539;53.686;9.158;2022-11-15T08:23:07;32.13;;;16.70;;
20758;SDS011;10539;53.686;9.158;2022-11-15T08:25:35;33.30;;;16.73;;
20758;SDS011;10539;53.686;9.158;2022-11-15T08:28:02;33.17;;;16.30;;
20758;SDS011;10539;53.686;9.158;2022-11-15T08:30:29;35.90;;;17.10;;
20758;SDS011;10539;53.686;9.158;2022-11-15T08:32:59;32.47;;;16.63;;
20758;SDS011;10539;53.686;9.158;2022-11-15T08:35:25;32.03;;;16.60;;
20758;SDS011;10539;53.686;9.158;2022-11-15T08:37:52;31.67;;;16.77;;
20758;SDS011;10539;53.686;9.158;2022-11-15T08:40:18;36.33;;;17.87;;
20758;SDS011;10539;53.686;9.158;2022-11-15T08:42:47;32.23;;;17.27;;
20758;SDS011;10539;53.686;9.158;2022-11-15T08:45:14;32.50;;;16.60;;
20758;SDS011;10539;53.686;9.158;2022-11-15T08:47:39;32.87;;;16.87;;
20758;SDS011;10539;53.686;9.158;2022-11-15T08:50:05;37.50;;;17.63;;
20758;SDS011;10539;53.686;9.158;2022-11-15T08:52:32;33.10;;;16.90;;
20758;SDS011;10539;53.686;9.158;2022-11-15T08:54:58;30.17;;;16.13;;
20758;SDS011;10539;53.686;9.158;2022-11-15T08:57:24;37.83;;;17.03;;
20758;SDS011;10539;53.686;9.158;2022-11-15T08:59:53;37.33;;;16.30;;
20758;SDS011;10539;53.686;9.158;2022-11-15T09:02:18;33.73;;;16.40;;
20758;SDS011;10539;53.686;9.158;2022-11-15T09:04:44;33.63;;;16.00;;
20758;SDS011;10539;53.686;9.158;2022-11-15T09:07:10;30.30;;;15.57;;
20758;SDS011;10539;53.686;9.158;2022-11-15T09:09:36;29.00;;;15.03;;
20758;SDS011;10539;53.686;9.158;2022-11-15T09:12:03;32.47;;;15.53;;
20758;SDS011;10539;53.686;9.158;2022-11-15T09:14:30;29.43;;;15.27;;
20758;SDS011;10539;53.686;9.158;2022-11-15T09:16:56;32.57;;;15.57;;
20758;SDS011;10539;53.686;9.158;2022-11-15T09:19:22;32.50;;;15.07;;
20758;SDS011;10539;53.686;9.158;2022-11-15T09:21:47;27.00;;;14.77;;
20758;SDS011;10539;53.686;9.158;2022-11-15T09:24:13;35.57;;;14.93;;
20758;SDS011;10539;53.686;9.158;2022-11-15T09:26:39;28.87;;;15.93;;
20758;SDS011;10539;53.686;9.158;2022-11-15T09:29:05;25.80;;;14.20;;
20758;SDS011;10539;53.686;9.158;2022-11-15T09:31:31;26.87;;;14.37;;
20758;SDS011;10539;53.686;9.158;2022-11-15T09:33:56;29.73;;;15.43;;
20758;SDS011;10539;53.686;9.158;2022-11-15T09:36:22;28.30;;;16.97;;
20758;SDS011;10539;53.686;9.158;2022-11-15T09:38:48;33.43;;;16.57;;
20758;SDS011;10539;53.686;9.158;2022-11-15T09:49:51;27.73;;;14.80;;
20758;SDS011;10539;53.686;9.158;2022-11-15T09:52:22;28.93;;;16.30;;
20758;SDS011;10539;53.686;9.158;2022-11-15T09:54:48;27.63;;;15.97;;
20758;SDS011;10539;53.686;9.158;2022-11-15T09:57:18;29.87;;;16.57;;
20758;SDS011;10539;53.686;9.158;2022-11-15T09:59:59;28.87;;;15.67;;
20758;SDS011;10539;53.686;9.158;2022-11-15T10:05:17;26.17;;;14.83;;
20758;SDS011;10539;53.686;9.158;2022-11-15T10:08:03;25.07;;;13.87;;
20758;SDS011;10539;53.686;9.158;2022-11-15T10:10:58;32.07;;;16.03;;
20758;SDS011;10539;53.686;9.158;2022-11-15T10:13:36;26.13;;;14.87;;
20758;SDS011;10539;53.686;9.158;2022-11-15T10:16:15;27.60;;;14.60;;
20758;SDS011;10539;53.686;9.158;2022-11-15T10:18:55;24.50;;;13.90;;
20758;SDS011;10539;53.686;9.158;2022-11-15T10:24:18;23.87;;;14.37;;
20758;SDS011;10539;53.686;9.158;2022-11-15T10:26:48;21.90;;;13.63;;
20758;SDS011;10539;53.686;9.158;2022-11-15T10:29:21;24.33;;;14.13;;
20758;SDS011;10539;53.686;9.158;2022-11-15T10:31:48;24.97;;;13.33;;
20758;SDS011;10539;53.686;9.158;2022-11-15T10:34:15;23.23;;;13.77;;
20758;SDS011;10539;53.686;9.158;2022-11-15T10:36:47;22.17;;;13.97;;
20758;SDS011;10539;53.686;9.158;2022-11-15T10:39:23;22.40;;;12.53;;
20758;SDS011;10539;53.686;9.158;2022-11-15T10:41:50;21.50;;;12.90;;
20758;SDS011;10539;53.686;9.158;2022-11-15T10:49:25;26.27;;;13.60;;
20758;SDS011;10539;53.686;9.158;2022-11-15T10:51:56;26.83;;;14.93;;
20758;SDS011;10539;53.686;9.158;2022-11-15T10:57:06;26.87;;;13.80;;
20758;SDS011;10539;53.686;9.158;2022-11-15T10:59:38;25.00;;;14.30;;
20758;SDS011;10539;53.686;9.158;2022-11-15T11:04:54;23.30;;;13.43;;
20758;SDS011;10539;53.686;9.158;2022-11-15T11:07:23;21.73;;;13.10;;
20758;SDS011;10539;53.686;9.158;2022-11-15T11:10:01;23.30;;;13.27;;
20758;SDS011;10539;53.686;9.158;2022-11-15T11:12:44;24.37;;;13.50;;
20758;SDS011;10539;53.686;9.158;2022-11-15T11:15:11;24.17;;;13.10;;
20758;SDS011;10539;53.686;9.158;2022-11-15T11:20:26;22.97;;;13.00;;
20758;SDS011;10539;53.686;9.158;2022-11-15T11:31:20;27.80;;;14.10;;
20758;SDS011;10539;53.686;9.158;2022-11-15T11:36:47;22.03;;;12.93;;
20758;SDS011;10539;53.686;9.158;2022-11-15T11:39:31;22.13;;;11.83;;
20758;SDS011;10539;53.686;9.158;2022-11-15T11:47:32;21.17;;;12.00;;
20758;SDS011;10539;53.686;9.158;2022-11-15T11:50:10;19.97;;;11.83;;
20758;SDS011;10539;53.686;9.158;2022-11-15T12:00:40;18.37;;;11.73;;
20758;SDS011;10539;53.686;9.158;2022-11-15T12:03:27;18.87;;;11.70;;
20758;SDS011;10539;53.686;9.158;2022-11-15T12:06:01;23.27;;;11.57;;
20758;SDS011;10539;53.686;9.158;2022-11-15T12:08:33;22.30;;;13.10;;
20758;SDS011;10539;53.686;9.158;2022-11-15T12:13:43;16.50;;;10.93;;
20758;SDS011;10539;53.686;9.158;2022-11-15T12:18:47;17.23;;;10.70;;
20758;SDS011;10539;53.686;9.158;2022-11-15T12:23:48;17.80;;;10.87;;
20758;SDS011;10539;53.686;9.158;2022-11-15T12:26:22;16.50;;;10.10;;
20758;SDS011;10539;53.686;9.158;2022-11-15T12:28:53;20.53;;;11.20;;
20758;SDS011;10539;53.686;9.158;2022-11-15T12:31:32;21.23;;;11.20;;
20758;SDS011;10539;53.686;9.158;2022-11-15T12:36:50;20.03;;;11.50;;
20758;SDS011;10539;53.686;9.158;2022-11-15T12:39:17;20.00;;;10.30;;
20758;SDS011;10539;53.686;9.158;2022-11-15T13:02:42;26.13;;;11.60;;
20758;SDS011;10539;53.686;9.158;2022-11-15T13:17:47;16.60;;;10.10;;
20758;SDS011;10539;53.686;9.158;2022-11-15T13:22:45;18.53;;;9.20;;
20758;SDS011;10539;53.686;9.158;2022-11-15T13:26:02;16.00;;;9.03;;
20758;SDS011;10539;53.686;9.158;2022-11-15T13:28:29;18.57;;;10.10;;
20758;SDS011;10539;53.686;9.158;2022-11-15T13:30:59;15.17;;;9.00;;
20758;SDS011;10539;53.686;9.158;2022-11-15T13:33:31;17.50;;;9.10;;
20758;SDS011;10539;53.686;9.158;2022-11-15T13:36:11;17.00;;;9.03;;
20758;SDS011;10539;53.686;9.158;2022-11-15T13:38:45;14.97;;;8.73;;
20758;SDS011;10539;53.686;9.158;2022-11-15T13:41:22;14.63;;;8.27;;
20758;SDS011;10539;53.686;9.158;2022-11-15T13:43:50;14.90;;;9.03;;
20758;SDS011;10539;53.686;9.158;2022-11-15T13:46:33;12.50;;;8.30;;
20758;SDS011;10539;53.686;9.158;2022-11-15T13:49:03;16.43;;;8.80;;
20758;SDS011;10539;53.686;9.158;2022-11-15T13:54:12;12.03;;;7.57;;
20758;SDS011;10539;53.686;9.158;2022-11-15T13:56:40;11.60;;;7.73;;
20758;SDS011;10539;53.686;9.158;2022-11-15T13:59:14;12.13;;;7.17;;
20758;SDS011;10539;53.686;9.158;2022-11-15T14:01:46;12.40;;;7.80;;
20758;SDS011;10539;53.686;9.158;2022-11-15T14:04:13;12.90;;;7.80;;
20758;SDS011;10539;53.686;9.158;2022-11-15T14:06:44;15.17;;;8.03;;
20758;SDS011;10539;53.686;9.158;2022-11-15T14:11:49;16.57;;;8.80;;
20758;SDS011;10539;53.686;9.158;2022-11-15T14:14:20;13.90;;;8.20;;
20758;SDS011;10539;53.686;9.158;2022-11-15T14:16:52;15.00;;;8.40;;
20758;SDS011;10539;53.686;9.158;2022-11-15T14:24:40;14.70;;;9.53;;
20758;SDS011;10539;53.686;9.158;2022-11-15T14:30:04;17.90;;;10.07;;
20758;SDS011;10539;53.686;9.158;2022-11-15T14:32:39;15.83;;;9.47;;
20758;SDS011;10539;53.686;9.158;2022-11-15T14:35:15;14.60;;;9.90;;
20758;SDS011;10539;53.686;9.158;2022-11-15T14:37:46;18.10;;;10.90;;
20758;SDS011;10539;53.686;9.158;2022-11-15T14:40:14;16.20;;;10.27;;
20758;SDS011;10539;53.686;9.158;2022-11-15T14:42:43;16.83;;;10.27;;
20758;SDS011;10539;53.686;9.158;2022-11-15T14:45:14;16.20;;;9.27;;
20758;SDS011;10539;53.686;9.158;2022-11-15T14:47:42;15.80;;;9.63;;
20758;SDS011;10539;53.686;9.158;2022-11-15T14:50:26;17.07;;;10.30;;
20758;SDS011;10539;53.686;9.158;2022-11-15T14:52:53;16.40;;;9.70;;
20758;SDS011;10539;53.686;9.158;2022-11-15T14:55:20;17.03;;;9.60;;
20758;SDS011;10539;53.686;9.158;2022-11-15T14:57:54;16.03;;;9.53;;
20758;SDS011;10539;53.686;9.158;2022-11-15T15:00:20;14.93;;;9.50;;
20758;SDS011;10539;53.686;9.158;2022-11-15T15:02:47;15.53;;;9.60;;
20758;SDS011;10539;53.686;9.158;2022-11-15T15:05:20;15.00;;;9.87;;
20758;SDS011;10539;53.686;9.158;2022-11-15T15:07:51;16.37;;;9.23;;
20758;SDS011;10539;53.686;9.158;2022-11-15T15:10:18;16.57;;;10.37;;
20758;SDS011;10539;53.686;9.158;2022-11-15T15:12:44;16.10;;;8.80;;
20758;SDS011;10539;53.686;9.158;2022-11-15T15:15:23;15.50;;;9.70;;
20758;SDS011;10539;53.686;9.158;2022-11-15T15:17:51;17.20;;;9.67;;
20758;SDS011;10539;53.686;9.158;2022-11-15T15:20:17;16.60;;;9.50;;
20758;SDS011;10539;53.686;9.158;2022-11-15T15:22:43;17.40;;;8.90;;
20758;SDS011;10539;53.686;9.158;2022-11-15T15:25:15;19.63;;;10.00;;
20758;SDS011;10539;53.686;9.158;2022-11-15T15:27:57;18.57;;;9.70;;
20758;SDS011;10539;53.686;9.158;2022-11-15T15:30:23;14.60;;;9.43;;
20758;SDS011;10539;53.686;9.158;2022-11-15T15:32:49;21.17;;;9.77;;
20758;SDS011;10539;53.686;9.158;2022-11-15T15:35:15;16.03;;;8.93;;
20758;SDS011;10539;53.686;9.158;2022-11-15T15:37:43;17.30;;;8.97;;
20758;SDS011;10539;53.686;9.158;2022-11-15T15:40:13;18.73;;;9.13;;
20758;SDS011;10539;53.686;9.158;2022-11-15T15:42:43;13.90;;;8.77;;
20758;SDS011;10539;53.686;9.158;2022-11-15T15:45:09;16.40;;;9.60;;
20758;SDS011;10539;53.686;9.158;2022-11-15T15:47:35;16.67;;;8.60;;
20758;SDS011;10539;53.686;9.158;2022-11-15T15:50:01;14.67;;;8.70;;
20758;SDS011;10539;53.686;9.158;2022-11-15T15:52:28;18.40;;;9.50;;
20758;SDS011;10539;53.686;9.158;2022-11-15T15:54:54;12.87;;;8.50;;
20758;SDS011;10539;53.686;9.158;2022-11-15T15:57:19;17.20;;;9.97;;
20758;SDS011;10539;53.686;9.158;2022-11-15T15:59:45;14.50;;;9.30;;
20758;SDS011;10539;53.686;9.158;2022-11-15T16:02:11;14.20;;;9.10;;
20758;SDS011;10539;53.686;9.158;2022-11-15T16:04:37;16.50;;;9.53;;
20758;SDS011;10539;53.686;9.158;2022-11-15T16:07:03;15.10;;;8.80;;
20758;SDS011;10539;53.686;9.158;2022-11-15T16:09:29;17.73;;;9.30;;
20758;SDS011;10539;53.686;9.158;2022-11-15T16:12:14;15.27;;;9.77;;
20758;SDS011;10539;53.686;9.158;2022-11-15T16:14:41;20.90;;;10.83;;
20758;SDS011;10539;53.686;9.158;2022-11-15T16:17:09;19.87;;;9.80;;
20758;SDS011;10539;53.686;9.158;2022-11-15T16:19:41;17.17;;;9.70;;
20758;SDS011;10539;53.686;9.158;2022-11-15T16:22:07;21.90;;;11.67;;
20758;SDS011;10539;53.686;9.158;2022-11-15T16:24:33;19.53;;;10.83;;
20758;SDS011;10539;53.686;9.158;2022-11-15T16:26:59;21.30;;;10.70;;
20758;SDS011;10539;53.686;9.158;2022-11-15T16:29:24;18.80;;;11.07;;
20758;SDS011;10539;53.686;9.158;2022-11-15T16:31:50;19.80;;;11.77;;
20758;SDS011;10539;53.686;9.158;2022-11-15T16:34:16;22.73;;;12.60;;
20758;SDS011;10539;53.686;9.158;2022-11-15T16:36:42;24.77;;;12.77;;
20758;SDS011;10539;53.686;9.158;2022-11-15T16:39:10;24.90;;;11.73;;
20758;SDS011;10539;53.686;9.158;2022-11-15T16:41:38;27.47;;;12.67;;
20758;SDS011;10539;53.686;9.158;2022-11-15T16:44:05;23.63;;;12.53;;
20758;SDS011;10539;53.686;9.158;2022-11-15T16:46:31;26.23;;;11.63;;
20758;SDS011;10539;53.686;9.158;2022-11-15T16:48:57;24.60;;;11.60;;
20758;SDS011;10539;53.686;9.158;2022-11-15T16:51:22;24.53;;;11.80;;
20758;SDS011;10539;53.686;9.158;2022-11-15T16:53:48;21.00;;;10.40;;